NCAR-RAP Real-Time Weather Data

Output produced by METARs form (08 May 2021  01:41 UTC)
found at http://weather.rap.ucar.edu/surface/
 
KHEI 080053Z AUTO 12020G28KT 10SM CLR 15/M06 A2991 RMK AO2 PK WND 11030/0021 SLP136 T01501056
KHEI 072353Z AUTO 12017G27KT 10SM CLR 16/M06 A2992 RMK AO2 PK WND 13030/2331 SLP140 T01561056 10178 20150 56021
KHEI 072253Z AUTO 13020G32KT 10SM CLR 17/M06 A2993 RMK AO2 PK WND 10033/2156 SLP140 T01671061
KHEI 072153Z AUTO 12021G29KT 10SM CLR 17/M06 A2996 RMK AO2 PK WND 11032/2111 SLP149 T01721061
KHEI 072053Z AUTO 13018G31KT 10SM CLR 18/M06 A2999 RMK AO2 PK WND 13031/1954 SLP159 T01781061 56027
KHEI 071953Z AUTO 12017G30KT 10SM CLR 17/M07 A3002 RMK AO2 PK WND 11033/1934 SLP169 T01721072
KHEI 071853Z AUTO 12018G28KT 10SM CLR 16/M08 A3004 RMK AO2 PK WND 10032/1803 SLP180 T01561078
KHEI 071753Z AUTO 12020G30KT 10SM CLR 15/M08 A3008 RMK AO2 PK WND 11030/1751 SLP191 T01501078 10150 20017 58020
KHEI 071653Z AUTO 11016G23KT 8SM CLR 13/M06 A3011 RMK AO2 PK WND 10028/1621 SLP199 T01331061
KHEI 071553Z AUTO 12016G24KT 10SM CLR 10/M05 A3012 RMK AO2 PK WND 10027/1542 SLP209 T01001050
KHEI 071453Z AUTO 12016G22KT 10SM CLR 08/M05 A3014 RMK AO2 SLP214 T00831050 58004
KHEI 071353Z AUTO 11011KT 10SM CLR 06/M03 A3016 RMK AO2 SLP217 T00611033
KHEI 071253Z AUTO 10009KT 10SM CLR 03/M04 A3016 RMK AO2 SLP216 T00331044
KHEI 071153Z AUTO 11008KT 10SM CLR 02/M06 A3015 RMK AO2 SLP215 T00171056 10061 20011 55000